NCAR-RAP Real-Time Weather Data

Output produced by METARs form (06 May 2021  16:12 UTC)
found at http://weather.rap.ucar.edu/surface/
 
KMLB 061553Z 25006KT 10SM FEW030 SCT038 BKN047 30/22 A3002 RMK AO2 LTG DSNT N SLP166 T03000222
KMLB 061453Z 26005KT 10SM SCT023 29/22 A3005 RMK AO2 SLP174 T02890222 58001
KMLB 061353Z 28007KT 10SM FEW050 28/23 A3005 RMK AO2 SLP174 T02780233
KMLB 061253Z 28006KT 10SM FEW065 26/22 A3006 RMK AO2 SLP177 T02610222
KMLB 061153Z 27005KT 10SM CLR 23/22 A3005 RMK AO2 SLP175 70065 T02330217 10233 20222 53012
KMLB 061053Z 26003KT 10SM CLR 22/21 A3002 RMK AO2 SLP164 T02220206
KMLB 060953Z 00000KT 10SM FEW075 22/21 A3002 RMK AO2 SLP164 T02220211
KMLB 060853Z AUTO 24004KT 10SM CLR 23/21 A3001 RMK AO2 SLP163 T02280211 55000
KMLB 060753Z AUTO 23004KT 10SM CLR 22/21 A3000 RMK AO2 SLP159 T02220211
KMLB 060653Z AUTO 21003KT 10SM CLR 23/21 A2999 RMK AO2 SLP156 T02280211
KMLB 060553Z AUTO 23005KT 10SM CLR 23/22 A3002 RMK AO2 SLP163 60065 T02280217 10294 20228 56018
KMLB 060453Z AUTO 16006KT 10SM CLR 23/22 A3002 RMK AO2 PRESFR SLP166 T02330222 403440228
KMLB 060353Z AUTO 00000KT 10SM CLR 23/22 A3005 RMK AO2 SLP175 T02330222
KMLB 060253Z 33011G14KT 5SM BR BKN050 BKN060 24/22 A3007 RMK AO2 RAE14 TSB0158E13 SLP181 P0022 60065 T02390222 50028
KMLB 060221Z 11005KT 5SM BR SCT022 BKN070 OVC090 23/22 A3007 RMK AO2 LTG DSNT NW RAE14 TSB0158E13 P0022 T02330217
KMLB 060213Z 08004KT 5SM -RA BR BKN024 BKN075 OVC085 23/22 A3007 RMK AO2 LTG DSNT NW TSB0158E13 P0022 T02330217
KMLB 060158Z 30009KT 1SM R09R/3500VP6000FT +TSRA BR BKN026 OVC065 23/22 A3009 RMK AO2 LTG DSNT W AND NW TSB58 P0013 T02280217
KMLB 060153Z 32010KT 1SM R09R/3500VP6000FT +RA BR BKN031 BKN065 OVC075 23/22 A3009 RMK AO2 LTG DSNT W AND NW RAE0058B27 TSE0054 SLP189 P0043 T02280217
KMLB 060148Z 33013KT 1 3/4SM R09R/3500V6000FT +RA BR SCT035 OVC065 23/21 A3008 RMK AO2 LTG DSNT NW RAE0058B27 TSE0054 P0029
KMLB 060055Z 36015KT 10SM -RA SCT065 BKN110 24/21 A3005 RMK AO2 LTG DSNT W-NE TSE54 P0000 T02390211
KMLB 060053Z 36014G20KT 10SM -TSRA BKN065 BKN110 24/21 A3005 RMK AO2 WSHFT 0034 LTG DSNT W-NE RAB18 TSB08E23B39 SLP174 P0000 T02390211
KMLB 060045Z 36013G22KT 10SM -TSRA SCT060 BKN075 BKN100 24/21 A3006 RMK AO2 LTG DSNT NW-NE RAB18 TSB08E23B39 PRESRR P0000 T02440211
KMLB 060029Z 28004KT 10SM VCTS -RA FEW060 FEW090 29/22 A3001 RMK AO2 LTG DSNT W-NE RAB18 TSB08E23 P0000 T02940217
KMLB 060014Z 18007KT 10SM TS CLR 29/22 A3000 RMK AO2 LTG DSNT N AND NW TSB08 T02940217